Concoeur et Corboin (21) - F

Date : 24/08/2013
Distance : 6,400 km

Place Nom Licence Catégorie Club Temps min/km CN à J-60 Points Différence Nouveau CN
1 TINCHANT Johann 747 H21 2517FC 0:54:06 8'27 7551 7016 -535 7554
2 POIROT Delphine 15979 D20 8809LO 0:56:45 8'52 6176 6688 +512 6259
3 KERVAREC Johann 10442 H21 6803AL 0:59:28 9'17 6293 6382 +89 6336
4 HABERKORN Chloé 10396 D18 2105BO 1:00:33 9'27 6100 6268 +168 6172
5 FLAMENT Régis 1790 H35 4504CE 1:03:31 9'55 5081 5975 +894 5382
6 BLOT Gregory 18211 H21 2407AQ 1:03:41 9'57 6375 5960 -415 6541
7 FLICOTEAUX Emmanuel 6018 H21 2517FC 1:04:49 10'07 5315 5856 +541 5663
8 HUMMEL-AZAIS Margaux 18432 D20 2517FC 1:04:55 10'08 5896 5847 -49 5981
9 CLOUARD Lucile 8551 D20 7807IF 1:05:14 10'11 6298 5818 -480 6285
10 DEVRIEUX Naïs 7672 D20 4203RA 1:05:48 10'16 5750 5768 +18 5754
11 PAPON Vincent 354 H21 6803AL 1:07:06 10'29 6019 5656 -363 6019
12 BORNARD Julie 9402 D18 7305RA 1:07:10 10'29 4919 5651 +732 5124
13 MORLON Marie 2100 D45 5702LO 1:07:26 10'32 5940 5628 -312 5913
14 GIRARD Lucille 19689 D18 3705CE 1:07:45 10'35 5651 5602 -49 5684
15 FLAMENT Claude 1786 H21 4504CE 1:09:37 10'52 5452 4919
16 LONCHAMPT Loïc 19367 H21 2508FC 1:10:11 10'57 4264 5408 +1144 5444
17 ROULLEAUX Julie 11559 D18 9105IF 1:11:36 11'11 5017 5301 +284 5036
18 POEDRAS Gwendal 10671 H21 5604BR 1:14:20 11'36 5154 5106 -48 5296
19 BODY Mathilde 10184 D18 7305RA 1:15:41 11'49 5135 5015 -120 5163
20 OLIVIER Sandra 2179 D45 7716IF 1:15:58 11'52 5507 4996 -511 5515
21 LUTHRINGER Coline 10091 D18 8809LO 1:16:52 12'00 4719 4938 +219 4757
22 WYMER Isabelle 702 D45 2508FC 1:17:07 12'02 4922 4627
23 PETER-JAN Lucile 19276 D18 3705CE 1:17:18 12'04 4994 4910 -84 5009
24 GROSJEAN Cathy 23628 D40 6913RA 1:18:57 12'20 3640 4807 +1167 4772
25 ARIAGNO Veronique 10320 D45 6906RA 1:20:36 12'35 3785 4709 +924 4226
26 ANTOINE-DELAUME Sophie 4592 D40 7715IF 1:20:46 12'37 5056 4699 -357 4952
27 MAKOVICKA Veronique 2378 D45 6804AL 1:22:06 12'49 4506 4623 +117 4566
28 VARRON Stephanie 13244 D40 9404IF 1:22:16 12'51 5413 4614 -799 5237
29 PICAZO Sophie 17789 D45 8405PR 1:23:09 12'59 4912 4565 -347 4890
30 RINGOT Alexis 12357 H20 6911RA 1:23:27 13'02 4425 4548 +123 4909
31 DUQUENNE Audrey 23885 D18 5907NO 1:23:43 13'04 4720 4534 -186 4774
32 CHAPELOT Lucas 16751 H20 5407LO 1:25:29 13'21 4475 4440 -35 4322
33 VILLAR Aurélie 18133 D35 6008PI 1:25:40 13'23 4719 4430 -289 4900
34 DAVID Céline 26993 D45 9006FC 1:26:36 13'31 4454 4383 -71 4440
35 HAURY Evelyne 13692 D45 6806AL 1:27:23 13'39 4375 4343 -32 4400
36 BRAULT LIGNEREUX Marie Christine 24679 D45 1601PC 1:27:40 13'41 4601 4329 -272 4551
37 BONORA Beatrice 243 D45 6906RA 1:29:35 13'59 4111 4237 +126 4243
38 RIVOLLIER Isaline 22451 D18 4201RA 1:30:32 14'08 4200 4192 -8 4376
39 BAGUEREY Baptiste 302 H21 6804AL 1:30:36 14'09 4086 4189 +103 4176
40 LEMERCIER Celine 10527 D40 5703LO 1:31:15 14'15 3993 4159 +166 4124
41 GIRE Camille 886 D45 7707IF 1:32:21 14'25 4560 4110 -450 4601
42 FIGUIERE Valérie 274 D45 7109BO 1:32:57 14'31 4065 4083 +18 4175
43 JUNCKER Guillaume 23423 H21 6804AL 1:35:34 14'55 3796 3971 +175 3994
44 VILLAR Isabelle 14216 D45 6701AL 1:36:23 15'03 4400 3938 -462 4426
45 BACHELET Valérie 9424 D45 5907NO 1:36:54 15'08 3863 3917 +54 3831
46 DUDOIGNON Jocelyne 17952 D45 2604RA 1:37:43 15'16 3931 3884 -47 3749
47 VERDIN Alix 15276 D18 7109BO 1:38:27 15'22 3781 3855 +74 3998
48 POURRE Valerie 738 D45 2508FC 1:38:35 15'24 4268 3850 -418 4240
49 BONORA Marine 11542 D18 6906RA 1:38:42 15'25 3817 3845 +28 4172
50 MAES Karine 5989 D45 5604BR 1:38:46 15'25 0 3843 3917
51 RAGAZZI Isabelle 23242 D45 5407LO 1:38:47 15'26 3879 3842 -37 3907
52 DENIER Anne-Françoise 23851 D40 7109BO 1:39:41 15'34 4350 3807 -543 4474
53 ANTOINE Christine 2920 D45 1403NM 1:40:28 15'41 4551 3778 -773 4896
54 DELENNE A-Francoise 11495 D45 1307PR 1:40:57 15'46 3837 3760 -77 3842
55 CRETE Angélique 18827 D40 6008PI 1:41:40 15'53 4389 3733 -656 4310
56 VERCAUTEREN M-Claude 16229 D40 6008PI 1:42:32 16'01 4419 3702 -717 4508
57 CHAILLAN Caroline 20381 D45 0404PR 1:42:33 16'01 4143 3701 -442 4127
58 CLERC Caroline 10493 D40 7305RA 1:42:50 16'04 4028 3691 -337 4028
59 VALCHERA Claire 8648 D45 3810RA 1:43:03 16'06 4200 3683 -517 4713
60 LE CAM Muriel 19391 D40 3502BR 1:43:17 16'08 4277 3675 -602 4321
61 ZIMMERMANN David 11820 H35 5407LO 1:44:12 16'16 4518 3642 -876 4518
62 ROUX Catherine 13270 D40 6205NO 1:44:28 16'19 4435 3633 -802 4375
63 HUCHON Patricia 25179 D45 2109BO 1:44:39 16'21 3585 3627 +42 3593
64 CALANDRY Lucia 9352 D45 7404RA 1:44:51 16'22 3008 3620 +612 3469
65 LE VERGE Helene 15367 D40 2904BR 1:44:56 16'23 2901 3617 +716 3659
66 GONET Janick 21046 D40 2607RA 1:45:15 16'26 3994 3606 -388 4106
67 PETINON Christine 18601 D40 2301LI 1:45:58 16'33 4371 3582 -789 4340
68 HUGUET Carine 22312 D40 4705AQ 1:47:50 16'50 4283 3520 -763 4279
69 PASSELERGUE Marianne 19215 D40 7808IF 1:48:49 17'00 4025 3488 -537 3964
70 GREBEL Laurence-Marie 6064 D40 7305RA 1:49:13 17'03 5093 3475 -1618 5012
71 COMPERE Laurent 2928 H45 1403NM 1:49:26 17'05 3774 3468 -306 3866
72 RENUCCI Maroussia 16297 D40 4504CE 1:49:41 17'08 4525 3460 -1065 4504
73 BESTEL Sandra 10758 D18 9105IF 1:50:21 17'14 4023 3439 -584 4169
74 LAVAL Corine 22371 D40 8106MP 1:50:45 17'18 3837 3427 -410 3756
75 ROCHE Sandrine 10684 D40 6911RA 1:51:23 17'24 3764 3408 -356 3793
76 JEANNEROD Xavier 13837 H35 6205NO 1:52:04 17'30 3890 3387 -503 3933
77 COLIN Marie-Noël 22020 D45 1311PR 1:54:02 17'49 2659 3328 +669 3033
78 BEAUVIR Laurence 8536 D40 3502BR 1:54:25 17'52 2842 3317 +475 3393
79 VIOLLOT Ariane 16532 D40 2109BO 1:56:02 18'07 0 3271 3718
80 BESTEL Florence 17309 D40 9105IF 1:56:20 18'10 4023 3263 -760 4066
81 LAVILLE Mireille 18411 D45 1307PR 1:57:40 18'23 3760 3226 -534 3819
82 CAVELIUS Sandrine 6495 D45 6906RA 1:58:00 18'26 2260 3216 +956 3167
83 CREUSAT Fanny 25989 D40 8809LO 1:58:37 18'32 3914 3200 -714 3907
84 TREMOULET Carole 13824 D40 4601MP 1:59:05 18'36 3975 3187 -788 3874
85 LEVREUX Nathalie 14946 D45 7807IF 2:00:45 18'52 3751 3143 -608 3785
86 RAUTURIER Nathalie 3200 D45 7807IF 2:01:07 18'55 3643 3134 -509 3657
87 GILLET Annabelle 19601 D45 5116CA 2:01:33 18'59 3646 3122 -524 3642
88 LAPEYRE Frederique 17633 D45 1905LI 2:01:33 18'59 4389 3122 -1267 4324
89 DOUSSET Corinne 20729 D45 4709AQ 2:01:39 19'00 3764 3120 -644 3759
90 CHABANCE Anne 20752 D45 4201RA 2:02:05 19'04 3233 3109 -124 3444
91 AMROUCHE Sandrine 22654 D40 0615AZ 2:02:50 19'11 3110 3090 -20 3274
92 MEYER Catherine 20483 D45 6806AL 2:04:03 19'22 3015 3060 +45 3088
93 HERVE-JOUSSE Odile 13784 D45 9109IF 2:05:22 19'35 3403 3027 -376 3458
94 MEUNIER Laurence 4215 D45 2508FC 2:05:26 19'35 0 3026 2668
95 DEPERSIN Isabelle 17899 D40 5907NO 2:05:36 19'37 2555 3022 +467 2861
96 MARCUZZI Cécile 28161 D20 6008PI 2:05:50 19'39 3016 2638
97 BERRARD Marianne 18130 D45 2607RA 2:05:51 19'39 3724 3016 -708 3765
98 GUENIN Nathalie 16950 D40 5116CA 2:06:25 19'45 4103 3002 -1101 4090
99 BONNEFON Christelle 25976 D45 3318AQ 2:08:30 20'04 3231 2954 -277 3329
100 ROBBERECHT Francoise 14591 D45 5907NO 2:10:06 20'19 3061 2917 -144 3120
101 GUINOT Joelle 18977 D45 1905LI 2:10:14 20'20 3334 2914 -420 3377
102 LOGE Sophie 12767 D45 5703LO 2:10:49 20'26 2831 2901 +70 2958
103 CLOUARD Florence 8549 D45 7807IF 2:14:44 21'03 3708 2817 -891 3656
104 ELIAS Laurence 19335 D45 1307PR 2:18:34 21'39 2997 2739 -258 3124
105 GONNEAUD Agnès 11384 D40 7109BO 2:22:26 22'15 0 2665 2682
106 SAMSON Caroline 23657 D45 8607PC 2:29:12 23'18 0 2544 3024
107 CHARDOT Ulrike 22314 D45 7807IF 2:30:50 23'34 2820 2516 -304 2820
108 WU Christine 22945 D40 7808IF 2:32:44 23'51 2728 2485 -243 2802
109 CHAMPIGNY Laurence 25032 D45 8311AZ 2:33:42 24'00 2270 2469 +199 2337
110 ROBBE Solène 24338 D45 9105IF 2:41:06 25'10 2674 2356 -318 2674
111 MONESTES Nathalie 24036 D45 4709AQ 2:43:31 25'32 2943 2321 -622 2943
112 COSME ACHIR Agnès 26291 D45 2517FC 3:05:13 28'56 1829 2049 +220 2176
RAVENEL Veronique 10902 D45 6804AL pm None 3330 0 3204
GIRARD Florence 22478 D45 2508FC pm None 2326 0 2326
JANSSON Jeanette 9597 D45 7807IF pm None 4988 0 4988
DAMIE Nicolas 8951 H21 5907NO pm None 4618 0 4672
LAFAYE Lucas 14945 H35 7707IF pm None 0 0
PERRIN Odile 2731 D40 4201RA pm None 5515 0 5661